sensor_id;sensor_type;location;lat;lon;timestamp;P1;durP1;ratioP1;P2;durP2;ratioP2
14681;SDS011;7429;52.498;13.480;2023-11-21T00:00:22;14.47;;;11.33;;
14681;SDS011;7429;52.498;13.480;2023-11-21T00:14:37;23.07;;;21.07;;
14681;SDS011;7429;52.498;13.480;2023-11-21T00:34:01;32.07;;;19.77;;
14681;SDS011;7429;52.498;13.480;2023-11-21T00:37:11;33.33;;;27.30;;
14681;SDS011;7429;52.498;13.480;2023-11-21T00:40:16;31.77;;;20.67;;
14681;SDS011;7429;52.498;13.480;2023-11-21T00:43:20;36.60;;;21.30;;
14681;SDS011;7429;52.498;13.480;2023-11-21T00:46:24;34.57;;;20.73;;
14681;SDS011;7429;52.498;13.480;2023-11-21T00:49:29;36.87;;;22.67;;
14681;SDS011;7429;52.498;13.480;2023-11-21T00:52:33;44.23;;;26.97;;
14681;SDS011;7429;52.498;13.480;2023-11-21T00:55:37;44.67;;;26.17;;
14681;SDS011;7429;52.498;13.480;2023-11-21T00:58:41;43.83;;;29.87;;
14681;SDS011;7429;52.498;13.480;2023-11-21T01:01:45;39.90;;;26.67;;
14681;SDS011;7429;52.498;13.480;2023-11-21T01:04:50;42.60;;;24.57;;
14681;SDS011;7429;52.498;13.480;2023-11-21T01:07:53;42.80;;;24.50;;
14681;SDS011;7429;52.498;13.480;2023-11-21T01:10:56;43.73;;;25.47;;
14681;SDS011;7429;52.498;13.480;2023-11-21T01:14:00;49.73;;;24.97;;
14681;SDS011;7429;52.498;13.480;2023-11-21T01:17:05;46.77;;;27.57;;
14681;SDS011;7429;52.498;13.480;2023-11-21T01:20:10;49.33;;;27.57;;
14681;SDS011;7429;52.498;13.480;2023-11-21T01:23:15;54.50;;;28.63;;
14681;SDS011;7429;52.498;13.480;2023-11-21T01:26:18;53.03;;;26.97;;
14681;SDS011;7429;52.498;13.480;2023-11-21T01:29:21;56.23;;;29.83;;
14681;SDS011;7429;52.498;13.480;2023-11-21T01:32:24;64.33;;;27.23;;
14681;SDS011;7429;52.498;13.480;2023-11-21T01:35:29;57.43;;;26.60;;
14681;SDS011;7429;52.498;13.480;2023-11-21T01:38:32;62.53;;;29.47;;
14681;SDS011;7429;52.498;13.480;2023-11-21T01:41:36;56.60;;;28.90;;
14681;SDS011;7429;52.498;13.480;2023-11-21T01:44:42;63.70;;;28.80;;
14681;SDS011;7429;52.498;13.480;2023-11-21T01:47:45;64.67;;;29.70;;
14681;SDS011;7429;52.498;13.480;2023-11-21T01:50:50;65.63;;;29.47;;
14681;SDS011;7429;52.498;13.480;2023-11-21T01:53:53;73.37;;;32.00;;
14681;SDS011;7429;52.498;13.480;2023-11-21T01:57:00;82.27;;;31.53;;
14681;SDS011;7429;52.498;13.480;2023-11-21T02:00:08;77.47;;;33.43;;
14681;SDS011;7429;52.498;13.480;2023-11-21T02:03:17;75.17;;;32.87;;
14681;SDS011;7429;52.498;13.480;2023-11-21T02:06:24;79.10;;;32.27;;
14681;SDS011;7429;52.498;13.480;2023-11-21T02:09:29;81.97;;;32.93;;
14681;SDS011;7429;52.498;13.480;2023-11-21T02:12:33;70.90;;;30.20;;
14681;SDS011;7429;52.498;13.480;2023-11-21T02:15:39;68.77;;;26.83;;
14681;SDS011;7429;52.498;13.480;2023-11-21T02:18:42;63.80;;;26.43;;
14681;SDS011;7429;52.498;13.480;2023-11-21T02:21:47;65.73;;;27.00;;
14681;SDS011;7429;52.498;13.480;2023-11-21T02:24:52;59.23;;;25.70;;
14681;SDS011;7429;52.498;13.480;2023-11-21T02:27:56;53.70;;;22.90;;
14681;SDS011;7429;52.498;13.480;2023-11-21T02:31:02;54.50;;;21.67;;
14681;SDS011;7429;52.498;13.480;2023-11-21T02:34:06;55.33;;;21.83;;
14681;SDS011;7429;52.498;13.480;2023-11-21T02:37:10;48.00;;;26.93;;
14681;SDS011;7429;52.498;13.480;2023-11-21T02:40:15;39.10;;;19.67;;
14681;SDS011;7429;52.498;13.480;2023-11-21T02:43:19;37.27;;;18.93;;
14681;SDS011;7429;52.498;13.480;2023-11-21T02:46:22;39.13;;;18.47;;
14681;SDS011;7429;52.498;13.480;2023-11-21T02:49:25;32.97;;;15.60;;
14681;SDS011;7429;52.498;13.480;2023-11-21T02:52:29;32.43;;;16.10;;
14681;SDS011;7429;52.498;13.480;2023-11-21T02:55:36;24.83;;;13.53;;
14681;SDS011;7429;52.498;13.480;2023-11-21T02:58:41;22.50;;;15.20;;
14681;SDS011;7429;52.498;13.480;2023-11-21T03:01:44;28.63;;;15.37;;
14681;SDS011;7429;52.498;13.480;2023-11-21T03:04:47;22.67;;;14.30;;
14681;SDS011;7429;52.498;13.480;2023-11-21T03:07:51;21.17;;;14.57;;
14681;SDS011;7429;52.498;13.480;2023-11-21T03:10:55;21.37;;;13.53;;
14681;SDS011;7429;52.498;13.480;2023-11-21T03:13:59;19.53;;;13.93;;
14681;SDS011;7429;52.498;13.480;2023-11-21T03:17:02;22.77;;;14.67;;
14681;SDS011;7429;52.498;13.480;2023-11-21T03:20:08;20.80;;;14.07;;
14681;SDS011;7429;52.498;13.480;2023-11-21T03:23:15;22.57;;;15.07;;
14681;SDS011;7429;52.498;13.480;2023-11-21T03:26:19;26.57;;;14.17;;
14681;SDS011;7429;52.498;13.480;2023-11-21T03:29:22;20.13;;;13.13;;
14681;SDS011;7429;52.498;13.480;2023-11-21T03:32:48;18.47;;;12.43;;
14681;SDS011;7429;52.498;13.480;2023-11-21T03:35:51;18.80;;;12.83;;
14681;SDS011;7429;52.498;13.480;2023-11-21T03:38:55;18.50;;;13.10;;
14681;SDS011;7429;52.498;13.480;2023-11-21T03:41:59;17.20;;;13.30;;
14681;SDS011;7429;52.498;13.480;2023-11-21T03:45:02;17.67;;;12.53;;
14681;SDS011;7429;52.498;13.480;2023-11-21T03:48:06;16.17;;;13.37;;
14681;SDS011;7429;52.498;13.480;2023-11-21T03:51:12;17.00;;;13.20;;
14681;SDS011;7429;52.498;13.480;2023-11-21T03:54:15;15.17;;;11.47;;
14681;SDS011;7429;52.498;13.480;2023-11-21T03:57:21;16.87;;;11.73;;
14681;SDS011;7429;52.498;13.480;2023-11-21T04:00:24;14.73;;;11.87;;
14681;SDS011;7429;52.498;13.480;2023-11-21T04:03:28;17.40;;;11.80;;
14681;SDS011;7429;52.498;13.480;2023-11-21T04:06:31;15.80;;;12.07;;
14681;SDS011;7429;52.498;13.480;2023-11-21T04:09:43;15.00;;;11.93;;
14681;SDS011;7429;52.498;13.480;2023-11-21T04:12:48;15.40;;;11.50;;
14681;SDS011;7429;52.498;13.480;2023-11-21T04:15:54;15.43;;;12.13;;
14681;SDS011;7429;52.498;13.480;2023-11-21T04:18:58;13.30;;;10.03;;
14681;SDS011;7429;52.498;13.480;2023-11-21T04:22:01;14.27;;;11.27;;
14681;SDS011;7429;52.498;13.480;2023-11-21T04:25:05;15.00;;;10.17;;
14681;SDS011;7429;52.498;13.480;2023-11-21T04:28:14;15.50;;;11.57;;
14681;SDS011;7429;52.498;13.480;2023-11-21T04:31:19;17.20;;;12.60;;
14681;SDS011;7429;52.498;13.480;2023-11-21T04:34:22;16.00;;;11.80;;
14681;SDS011;7429;52.498;13.480;2023-11-21T04:37:32;14.20;;;10.80;;
14681;SDS011;7429;52.498;13.480;2023-11-21T04:40:37;14.90;;;11.53;;
14681;SDS011;7429;52.498;13.480;2023-11-21T04:43:42;14.07;;;10.03;;
14681;SDS011;7429;52.498;13.480;2023-11-21T04:46:45;13.33;;;10.13;;
14681;SDS011;7429;52.498;13.480;2023-11-21T04:49:48;12.37;;;10.47;;
14681;SDS011;7429;52.498;13.480;2023-11-21T04:52:52;12.47;;;10.37;;
14681;SDS011;7429;52.498;13.480;2023-11-21T04:55:55;12.10;;;9.60;;
14681;SDS011;7429;52.498;13.480;2023-11-21T04:58:59;12.10;;;9.07;;
14681;SDS011;7429;52.498;13.480;2023-11-21T05:02:05;10.73;;;8.07;;
14681;SDS011;7429;52.498;13.480;2023-11-21T05:05:20;12.60;;;9.47;;
14681;SDS011;7429;52.498;13.480;2023-11-21T05:08:26;11.40;;;8.83;;
14681;SDS011;7429;52.498;13.480;2023-11-21T05:11:30;10.43;;;8.63;;
14681;SDS011;7429;52.498;13.480;2023-11-21T05:14:36;9.90;;;8.23;;
14681;SDS011;7429;52.498;13.480;2023-11-21T05:17:39;11.83;;;8.33;;
14681;SDS011;7429;52.498;13.480;2023-11-21T05:20:45;8.97;;;7.50;;
14681;SDS011;7429;52.498;13.480;2023-11-21T05:23:48;13.07;;;9.17;;
14681;SDS011;7429;52.498;13.480;2023-11-21T05:26:51;11.57;;;8.90;;
14681;SDS011;7429;52.498;13.480;2023-11-21T05:29:57;12.50;;;8.77;;
14681;SDS011;7429;52.498;13.480;2023-11-21T05:33:04;11.37;;;8.60;;
14681;SDS011;7429;52.498;13.480;2023-11-21T05:36:10;11.50;;;8.57;;
14681;SDS011;7429;52.498;13.480;2023-11-21T05:39:16;11.53;;;9.37;;
14681;SDS011;7429;52.498;13.480;2023-11-21T05:42:20;11.00;;;8.43;;
14681;SDS011;7429;52.498;13.480;2023-11-21T05:45:29;11.60;;;8.50;;
14681;SDS011;7429;52.498;13.480;2023-11-21T05:48:34;10.67;;;8.67;;
14681;SDS011;7429;52.498;13.480;2023-11-21T05:51:39;11.00;;;8.90;;
14681;SDS011;7429;52.498;13.480;2023-11-21T05:54:42;10.13;;;8.17;;
14681;SDS011;7429;52.498;13.480;2023-11-21T05:57:45;11.03;;;8.23;;
14681;SDS011;7429;52.498;13.480;2023-11-21T06:00:50;10.50;;;7.83;;
14681;SDS011;7429;52.498;13.480;2023-11-21T06:03:53;9.90;;;8.13;;
14681;SDS011;7429;52.498;13.480;2023-11-21T06:06:57;8.83;;;7.50;;
14681;SDS011;7429;52.498;13.480;2023-11-21T06:10:03;9.60;;;8.27;;
14681;SDS011;7429;52.498;13.480;2023-11-21T06:13:10;8.53;;;7.10;;
14681;SDS011;7429;52.498;13.480;2023-11-21T06:16:15;8.23;;;6.90;;
14681;SDS011;7429;52.498;13.480;2023-11-21T06:19:20;10.00;;;8.07;;
14681;SDS011;7429;52.498;13.480;2023-11-21T06:22:25;11.00;;;7.47;;
14681;SDS011;7429;52.498;13.480;2023-11-21T06:25:29;10.93;;;8.47;;
14681;SDS011;7429;52.498;13.480;2023-11-21T06:28:34;10.60;;;8.90;;
14681;SDS011;7429;52.498;13.480;2023-11-21T06:31:39;12.67;;;8.80;;
14681;SDS011;7429;52.498;13.480;2023-11-21T06:34:43;10.23;;;9.17;;
14681;SDS011;7429;52.498;13.480;2023-11-21T06:37:56;10.37;;;9.10;;
14681;SDS011;7429;52.498;13.480;2023-11-21T06:41:01;11.53;;;9.67;;
14681;SDS011;7429;52.498;13.480;2023-11-21T06:44:12;13.20;;;9.13;;
14681;SDS011;7429;52.498;13.480;2023-11-21T06:47:17;13.60;;;9.97;;
14681;SDS011;7429;52.498;13.480;2023-11-21T06:50:21;12.90;;;9.73;;
14681;SDS011;7429;52.498;13.480;2023-11-21T06:53:24;10.87;;;9.40;;
14681;SDS011;7429;52.498;13.480;2023-11-21T06:56:28;9.67;;;8.67;;
14681;SDS011;7429;52.498;13.480;2023-11-21T06:59:34;11.73;;;8.83;;
14681;SDS011;7429;52.498;13.480;2023-11-21T07:02:38;10.93;;;8.70;;
14681;SDS011;7429;52.498;13.480;2023-11-21T07:05:46;9.40;;;8.10;;
14681;SDS011;7429;52.498;13.480;2023-11-21T07:08:49;11.47;;;8.70;;
14681;SDS011;7429;52.498;13.480;2023-11-21T07:11:52;9.93;;;8.03;;
14681;SDS011;7429;52.498;13.480;2023-11-21T07:14:55;10.57;;;8.17;;
14681;SDS011;7429;52.498;13.480;2023-11-21T07:18:00;9.20;;;8.23;;
14681;SDS011;7429;52.498;13.480;2023-11-21T07:21:06;8.67;;;7.70;;
14681;SDS011;7429;52.498;13.480;2023-11-21T07:24:10;11.17;;;9.73;;
14681;SDS011;7429;52.498;13.480;2023-11-21T07:27:13;9.73;;;8.60;;
14681;SDS011;7429;52.498;13.480;2023-11-21T07:30:18;12.73;;;9.03;;
14681;SDS011;7429;52.498;13.480;2023-11-21T07:33:26;12.43;;;8.70;;
14681;SDS011;7429;52.498;13.480;2023-11-21T07:36:29;11.07;;;8.63;;
14681;SDS011;7429;52.498;13.480;2023-11-21T07:39:35;9.87;;;7.27;;
14681;SDS011;7429;52.498;13.480;2023-11-21T07:42:51;8.57;;;7.20;;
14681;SDS011;7429;52.498;13.480;2023-11-21T07:46:08;8.50;;;7.10;;
14681;SDS011;7429;52.498;13.480;2023-11-21T07:49:19;8.70;;;6.60;;
14681;SDS011;7429;52.498;13.480;2023-11-21T07:52:40;9.23;;;7.47;;
14681;SDS011;7429;52.498;13.480;2023-11-21T07:56:42;9.93;;;7.00;;
14681;SDS011;7429;52.498;13.480;2023-11-21T07:59:46;13.67;;;8.00;;
14681;SDS011;7429;52.498;13.480;2023-11-21T08:02:56;12.87;;;8.43;;
14681;SDS011;7429;52.498;13.480;2023-11-21T08:06:01;12.77;;;6.90;;
14681;SDS011;7429;52.498;13.480;2023-11-21T08:09:09;14.77;;;9.93;;
14681;SDS011;7429;52.498;13.480;2023-11-21T08:12:17;15.83;;;9.73;;
14681;SDS011;7429;52.498;13.480;2023-11-21T08:15:23;17.40;;;9.60;;
14681;SDS011;7429;52.498;13.480;2023-11-21T08:18:26;17.03;;;10.03;;
14681;SDS011;7429;52.498;13.480;2023-11-21T08:21:31;21.87;;;10.13;;
14681;SDS011;7429;52.498;13.480;2023-11-21T08:24:34;19.40;;;10.07;;
14681;SDS011;7429;52.498;13.480;2023-11-21T08:27:38;18.93;;;10.13;;
14681;SDS011;7429;52.498;13.480;2023-11-21T08:30:41;21.63;;;11.10;;
14681;SDS011;7429;52.498;13.480;2023-11-21T08:33:45;21.57;;;10.70;;
14681;SDS011;7429;52.498;13.480;2023-11-21T08:36:50;24.90;;;11.13;;
14681;SDS011;7429;52.498;13.480;2023-11-21T08:39:53;25.57;;;10.60;;
14681;SDS011;7429;52.498;13.480;2023-11-21T08:43:02;27.67;;;11.40;;
14681;SDS011;7429;52.498;13.480;2023-11-21T08:46:08;18.17;;;9.70;;
14681;SDS011;7429;52.498;13.480;2023-11-21T08:49:14;20.97;;;10.70;;
14681;SDS011;7429;52.498;13.480;2023-11-21T08:52:21;21.50;;;11.17;;
14681;SDS011;7429;52.498;13.480;2023-11-21T08:55:27;18.33;;;11.20;;
14681;SDS011;7429;52.498;13.480;2023-11-21T08:58:30;25.87;;;11.13;;
14681;SDS011;7429;52.498;13.480;2023-11-21T09:01:34;18.53;;;9.97;;
14681;SDS011;7429;52.498;13.480;2023-11-21T09:04:37;20.77;;;10.27;;
14681;SDS011;7429;52.498;13.480;2023-11-21T09:07:44;22.67;;;10.50;;
14681;SDS011;7429;52.498;13.480;2023-11-21T09:10:50;22.47;;;10.53;;
14681;SDS011;7429;52.498;13.480;2023-11-21T09:13:53;18.07;;;10.87;;
14681;SDS011;7429;52.498;13.480;2023-11-21T09:17:00;21.13;;;9.53;;
14681;SDS011;7429;52.498;13.480;2023-11-21T09:20:03;20.73;;;8.73;;
14681;SDS011;7429;52.498;13.480;2023-11-21T09:23:10;20.80;;;10.17;;
14681;SDS011;7429;52.498;13.480;2023-11-21T09:26:14;20.20;;;10.37;;
14681;SDS011;7429;52.498;13.480;2023-11-21T09:29:17;15.80;;;8.27;;
14681;SDS011;7429;52.498;13.480;2023-11-21T09:32:20;10.80;;;6.67;;
14681;SDS011;7429;52.498;13.480;2023-11-21T09:35:23;11.33;;;5.97;;
14681;SDS011;7429;52.498;13.480;2023-11-21T09:38:28;10.53;;;5.97;;
14681;SDS011;7429;52.498;13.480;2023-11-21T09:41:32;8.93;;;5.10;;
14681;SDS011;7429;52.498;13.480;2023-11-21T09:44:52;7.23;;;5.97;;
14681;SDS011;7429;52.498;13.480;2023-11-21T09:48:04;7.30;;;5.13;;
14681;SDS011;7429;52.498;13.480;2023-11-21T09:51:08;8.47;;;5.17;;
14681;SDS011;7429;52.498;13.480;2023-11-21T09:54:14;5.73;;;4.77;;
14681;SDS011;7429;52.498;13.480;2023-11-21T09:57:19;7.03;;;5.83;;
14681;SDS011;7429;52.498;13.480;2023-11-21T10:00:23;6.30;;;5.00;;
14681;SDS011;7429;52.498;13.480;2023-11-21T10:03:29;7.30;;;4.70;;
14681;SDS011;7429;52.498;13.480;2023-11-21T10:06:32;4.93;;;4.50;;
14681;SDS011;7429;52.498;13.480;2023-11-21T10:09:37;6.50;;;5.90;;
14681;SDS011;7429;52.498;13.480;2023-11-21T10:12:41;6.30;;;4.47;;
14681;SDS011;7429;52.498;13.480;2023-11-21T10:15:47;5.40;;;4.90;;
14681;SDS011;7429;52.498;13.480;2023-11-21T10:18:54;5.17;;;4.67;;
14681;SDS011;7429;52.498;13.480;2023-11-21T10:22:11;4.63;;;4.33;;
14681;SDS011;7429;52.498;13.480;2023-11-21T10:25:17;4.87;;;4.47;;
14681;SDS011;7429;52.498;13.480;2023-11-21T10:28:22;7.57;;;4.57;;
14681;SDS011;7429;52.498;13.480;2023-11-21T10:31:26;7.80;;;5.90;;
14681;SDS011;7429;52.498;13.480;2023-11-21T10:34:29;5.37;;;4.97;;
14681;SDS011;7429;52.498;13.480;2023-11-21T10:37:33;4.97;;;4.57;;
14681;SDS011;7429;52.498;13.480;2023-11-21T10:40:38;6.23;;;5.73;;
14681;SDS011;7429;52.498;13.480;2023-11-21T10:43:43;5.23;;;4.83;;
14681;SDS011;7429;52.498;13.480;2023-11-21T10:46:46;5.20;;;4.80;;
14681;SDS011;7429;52.498;13.480;2023-11-21T10:49:52;6.20;;;4.90;;
14681;SDS011;7429;52.498;13.480;2023-11-21T10:52:55;5.97;;;5.07;;
14681;SDS011;7429;52.498;13.480;2023-11-21T10:56:05;5.93;;;5.23;;
14681;SDS011;7429;52.498;13.480;2023-11-21T10:59:12;5.50;;;5.00;;
14681;SDS011;7429;52.498;13.480;2023-11-21T11:02:19;6.10;;;5.50;;
14681;SDS011;7429;52.498;13.480;2023-11-21T11:05:29;6.17;;;5.67;;
14681;SDS011;7429;52.498;13.480;2023-11-21T11:08:33;8.53;;;5.70;;
14681;SDS011;7429;52.498;13.480;2023-11-21T11:11:40;6.50;;;5.90;;
14681;SDS011;7429;52.498;13.480;2023-11-21T11:14:45;8.10;;;6.63;;
14681;SDS011;7429;52.498;13.480;2023-11-21T11:17:49;7.23;;;6.53;;
14681;SDS011;7429;52.498;13.480;2023-11-21T11:20:52;6.97;;;6.33;;
14681;SDS011;7429;52.498;13.480;2023-11-21T11:24:01;7.47;;;6.77;;
14681;SDS011;7429;52.498;13.480;2023-11-21T11:27:27;6.43;;;5.83;;
14681;SDS011;7429;52.498;13.480;2023-11-21T11:30:41;6.50;;;6.00;;
14681;SDS011;7429;52.498;13.480;2023-11-21T11:33:58;6.90;;;6.30;;
14681;SDS011;7429;52.498;13.480;2023-11-21T11:37:11;7.93;;;6.87;;
14681;SDS011;7429;52.498;13.480;2023-11-21T11:40:15;9.70;;;7.27;;
14681;SDS011;7429;52.498;13.480;2023-11-21T11:43:26;7.83;;;7.13;;
14681;SDS011;7429;52.498;13.480;2023-11-21T11:46:42;9.07;;;7.50;;
14681;SDS011;7429;52.498;13.480;2023-11-21T11:49:55;7.67;;;6.80;;
14681;SDS011;7429;52.498;13.480;2023-11-21T11:53:12;6.50;;;5.73;;
14681;SDS011;7429;52.498;13.480;2023-11-21T11:56:25;5.70;;;5.20;;
14681;SDS011;7429;52.498;13.480;2023-11-21T11:59:31;6.73;;;6.13;;
14681;SDS011;7429;52.498;13.480;2023-11-21T12:03:14;6.63;;;6.13;;
14681;SDS011;7429;52.498;13.480;2023-11-21T12:06:18;5.57;;;5.17;;
14681;SDS011;7429;52.498;13.480;2023-11-21T12:09:36;5.57;;;5.07;;
14681;SDS011;7429;52.498;13.480;2023-11-21T12:12:43;5.87;;;5.37;;
14681;SDS011;7429;52.498;13.480;2023-11-21T12:15:52;5.10;;;4.60;;
14681;SDS011;7429;52.498;13.480;2023-11-21T12:18:56;6.50;;;5.90;;
14681;SDS011;7429;52.498;13.480;2023-11-21T12:22:00;5.50;;;5.10;;
14681;SDS011;7429;52.498;13.480;2023-11-21T12:25:03;5.73;;;5.33;;
14681;SDS011;7429;52.498;13.480;2023-11-21T12:28:08;6.50;;;5.47;;
14681;SDS011;7429;52.498;13.480;2023-11-21T12:31:13;7.30;;;5.23;;
14681;SDS011;7429;52.498;13.480;2023-11-21T12:34:23;5.40;;;5.00;;
14681;SDS011;7429;52.498;13.480;2023-11-21T12:37:26;6.03;;;5.43;;
14681;SDS011;7429;52.498;13.480;2023-11-21T12:40:29;8.67;;;6.30;;
14681;SDS011;7429;52.498;13.480;2023-11-21T12:43:32;6.50;;;6.00;;
14681;SDS011;7429;52.498;13.480;2023-11-21T12:46:41;8.57;;;5.23;;
14681;SDS011;7429;52.498;13.480;2023-11-21T12:49:47;6.40;;;5.90;;
14681;SDS011;7429;52.498;13.480;2023-11-21T12:52:51;6.20;;;5.20;;
14681;SDS011;7429;52.498;13.480;2023-11-21T12:55:55;6.03;;;5.53;;
14681;SDS011;7429;52.498;13.480;2023-11-21T12:59:00;5.43;;;5.00;;
14681;SDS011;7429;52.498;13.480;2023-11-21T13:02:07;7.63;;;5.80;;
14681;SDS011;7429;52.498;13.480;2023-11-21T13:05:11;6.30;;;5.73;;
14681;SDS011;7429;52.498;13.480;2023-11-21T13:08:23;7.60;;;6.10;;
14681;SDS011;7429;52.498;13.480;2023-11-21T13:11:28;6.20;;;5.60;;
14681;SDS011;7429;52.498;13.480;2023-11-21T13:14:34;5.43;;;5.00;;
14681;SDS011;7429;52.498;13.480;2023-11-21T13:17:41;6.03;;;5.47;;
14681;SDS011;7429;52.498;13.480;2023-11-21T13:20:46;6.47;;;5.67;;
14681;SDS011;7429;52.498;13.480;2023-11-21T13:23:49;6.00;;;5.40;;
14681;SDS011;7429;52.498;13.480;2023-11-21T13:26:54;8.20;;;5.90;;
14681;SDS011;7429;52.498;13.480;2023-11-21T13:29:59;6.50;;;5.90;;
14681;SDS011;7429;52.498;13.480;2023-11-21T13:33:05;7.13;;;6.40;;
14681;SDS011;7429;52.498;13.480;2023-11-21T13:36:10;9.20;;;6.97;;
14681;SDS011;7429;52.498;13.480;2023-11-21T13:39:15;7.93;;;7.13;;
14681;SDS011;7429;52.498;13.480;2023-11-21T13:42:23;8.77;;;7.63;;
14681;SDS011;7429;52.498;13.480;2023-11-21T13:45:29;9.97;;;9.03;;
14681;SDS011;7429;52.498;13.480;2023-11-21T13:48:35;8.43;;;7.43;;
14681;SDS011;7429;52.498;13.480;2023-11-21T13:51:43;8.33;;;7.40;;
14681;SDS011;7429;52.498;13.480;2023-11-21T13:54:49;9.87;;;7.97;;
14681;SDS011;7429;52.498;13.480;2023-11-21T13:57:52;8.53;;;7.57;;
14681;SDS011;7429;52.498;13.480;2023-11-21T14:01:06;9.13;;;7.93;;
14681;SDS011;7429;52.498;13.480;2023-11-21T14:04:20;12.17;;;8.77;;
14681;SDS011;7429;52.498;13.480;2023-11-21T14:07:41;10.07;;;9.03;;
14681;SDS011;7429;52.498;13.480;2023-11-21T14:10:49;11.40;;;9.40;;
14681;SDS011;7429;52.498;13.480;2023-11-21T14:13:57;13.30;;;9.90;;
14681;SDS011;7429;52.498;13.480;2023-11-21T14:17:02;14.30;;;10.97;;
14681;SDS011;7429;52.498;13.480;2023-11-21T14:20:10;13.13;;;11.43;;
14681;SDS011;7429;52.498;13.480;2023-11-21T14:23:19;14.17;;;11.77;;
14681;SDS011;7429;52.498;13.480;2023-11-21T14:26:22;16.03;;;12.17;;
14681;SDS011;7429;52.498;13.480;2023-11-21T14:29:26;19.33;;;15.53;;
14681;SDS011;7429;52.498;13.480;2023-11-21T14:32:31;21.40;;;16.90;;
14681;SDS011;7429;52.498;13.480;2023-11-21T14:35:35;18.20;;;14.70;;
14681;SDS011;7429;52.498;13.480;2023-11-21T14:38:39;22.27;;;14.83;;
14681;SDS011;7429;52.498;13.480;2023-11-21T14:41:42;23.70;;;18.37;;
14681;SDS011;7429;52.498;13.480;2023-11-21T14:44:47;25.93;;;17.70;;
14681;SDS011;7429;52.498;13.480;2023-11-21T14:47:52;25.97;;;17.13;;
14681;SDS011;7429;52.498;13.480;2023-11-21T14:51:05;22.80;;;17.07;;
14681;SDS011;7429;52.498;13.480;2023-11-21T14:54:27;22.67;;;17.03;;
14681;SDS011;7429;52.498;13.480;2023-11-21T14:57:42;28.20;;;18.70;;
14681;SDS011;7429;52.498;13.480;2023-11-21T15:00:50;31.30;;;19.10;;
14681;SDS011;7429;52.498;13.480;2023-11-21T15:03:58;38.87;;;20.17;;
14681;SDS011;7429;52.498;13.480;2023-11-21T15:07:03;27.27;;;18.93;;
14681;SDS011;7429;52.498;13.480;2023-11-21T15:10:06;26.07;;;18.33;;
14681;SDS011;7429;52.498;13.480;2023-11-21T15:13:16;29.27;;;19.40;;
14681;SDS011;7429;52.498;13.480;2023-11-21T15:16:18;27.37;;;19.13;;
14681;SDS011;7429;52.498;13.480;2023-11-21T15:19:21;26.23;;;18.53;;
14681;SDS011;7429;52.498;13.480;2023-11-21T15:22:29;24.40;;;18.90;;
14681;SDS011;7429;52.498;13.480;2023-11-21T15:25:35;26.43;;;18.70;;
14681;SDS011;7429;52.498;13.480;2023-11-21T15:28:38;25.13;;;16.60;;
14681;SDS011;7429;52.498;13.480;2023-11-21T15:31:41;23.73;;;16.87;;
14681;SDS011;7429;52.498;13.480;2023-11-21T15:34:50;23.53;;;16.80;;
14681;SDS011;7429;52.498;13.480;2023-11-21T15:37:54;22.07;;;16.13;;
14681;SDS011;7429;52.498;13.480;2023-11-21T15:40:59;19.80;;;14.60;;
14681;SDS011;7429;52.498;13.480;2023-11-21T15:44:04;19.70;;;14.30;;
14681;SDS011;7429;52.498;13.480;2023-11-21T15:47:11;20.07;;;13.63;;
14681;SDS011;7429;52.498;13.480;2023-11-21T15:50:17;18.10;;;12.97;;
14681;SDS011;7429;52.498;13.480;2023-11-21T15:53:22;17.97;;;14.00;;
14681;SDS011;7429;52.498;13.480;2023-11-21T15:56:25;23.30;;;15.37;;
14681;SDS011;7429;52.498;13.480;2023-11-21T15:59:28;17.83;;;13.03;;
14681;SDS011;7429;52.498;13.480;2023-11-21T16:02:36;18.37;;;13.93;;
14681;SDS011;7429;52.498;13.480;2023-11-21T16:05:41;17.60;;;13.27;;
14681;SDS011;7429;52.498;13.480;2023-11-21T16:08:45;19.07;;;13.00;;
14681;SDS011;7429;52.498;13.480;2023-11-21T16:11:49;17.20;;;13.43;;
14681;SDS011;7429;52.498;13.480;2023-11-21T16:14:57;20.00;;;13.20;;
14681;SDS011;7429;52.498;13.480;2023-11-21T16:21:48;16.77;;;12.17;;
14681;SDS011;7429;52.498;13.480;2023-11-21T16:24:53;16.47;;;11.90;;
14681;SDS011;7429;52.498;13.480;2023-11-21T16:27:56;16.13;;;12.03;;
14681;SDS011;7429;52.498;13.480;2023-11-21T16:31:05;19.23;;;12.13;;
14681;SDS011;7429;52.498;13.480;2023-11-21T16:34:11;16.13;;;11.13;;
14681;SDS011;7429;52.498;13.480;2023-11-21T16:37:21;14.50;;;11.00;;
14681;SDS011;7429;52.498;13.480;2023-11-21T16:40:25;15.40;;;12.27;;
14681;SDS011;7429;52.498;13.480;2023-11-21T16:43:29;16.43;;;10.80;;
14681;SDS011;7429;52.498;13.480;2023-11-21T16:46:33;15.07;;;10.73;;
14681;SDS011;7429;52.498;13.480;2023-11-21T16:49:37;14.00;;;10.47;;
14681;SDS011;7429;52.498;13.480;2023-11-21T16:52:42;14.93;;;10.40;;
14681;SDS011;7429;52.498;13.480;2023-11-21T16:55:47;13.73;;;10.77;;
14681;SDS011;7429;52.498;13.480;2023-11-21T16:58:50;18.27;;;11.63;;
14681;SDS011;7429;52.498;13.480;2023-11-21T17:01:54;16.93;;;11.47;;
14681;SDS011;7429;52.498;13.480;2023-11-21T17:04:57;12.70;;;9.57;;
14681;SDS011;7429;52.498;13.480;2023-11-21T17:08:00;15.20;;;12.27;;
14681;SDS011;7429;52.498;13.480;2023-11-21T17:11:05;16.73;;;11.57;;
14681;SDS011;7429;52.498;13.480;2023-11-21T17:14:15;13.97;;;10.93;;
14681;SDS011;7429;52.498;13.480;2023-11-21T17:17:19;16.00;;;12.03;;
14681;SDS011;7429;52.498;13.480;2023-11-21T17:20:22;18.07;;;12.60;;
14681;SDS011;7429;52.498;13.480;2023-11-21T17:23:27;16.13;;;10.43;;
14681;SDS011;7429;52.498;13.480;2023-11-21T17:26:32;17.23;;;11.30;;
14681;SDS011;7429;52.498;13.480;2023-11-21T17:29:36;15.17;;;11.57;;
14681;SDS011;7429;52.498;13.480;2023-11-21T17:32:39;15.87;;;11.73;;
14681;SDS011;7429;52.498;13.480;2023-11-21T17:35:45;15.90;;;11.83;;
14681;SDS011;7429;52.498;13.480;2023-11-21T17:38:51;14.27;;;10.60;;
14681;SDS011;7429;52.498;13.480;2023-11-21T17:41:56;14.83;;;11.43;;
14681;SDS011;7429;52.498;13.480;2023-11-21T17:45:02;15.60;;;11.27;;
14681;SDS011;7429;52.498;13.480;2023-11-21T17:48:06;13.87;;;10.73;;
14681;SDS011;7429;52.498;13.480;2023-11-21T17:51:09;16.43;;;11.53;;
14681;SDS011;7429;52.498;13.480;2023-11-21T17:54:12;13.33;;;10.63;;
14681;SDS011;7429;52.498;13.480;2023-11-21T17:57:17;13.33;;;10.63;;
14681;SDS011;7429;52.498;13.480;2023-11-21T18:00:20;18.03;;;11.93;;
14681;SDS011;7429;52.498;13.480;2023-11-21T18:03:27;13.93;;;10.37;;
14681;SDS011;7429;52.498;13.480;2023-11-21T18:06:31;15.20;;;11.50;;
14681;SDS011;7429;52.498;13.480;2023-11-21T18:09:35;18.83;;;11.77;;
14681;SDS011;7429;52.498;13.480;2023-11-21T18:12:42;14.30;;;11.67;;
14681;SDS011;7429;52.498;13.480;2023-11-21T18:15:45;17.47;;;11.90;;
14681;SDS011;7429;52.498;13.480;2023-11-21T18:18:50;15.20;;;11.43;;
14681;SDS011;7429;52.498;13.480;2023-11-21T18:21:56;14.80;;;11.97;;
14681;SDS011;7429;52.498;13.480;2023-11-21T18:25:05;16.80;;;12.10;;
14681;SDS011;7429;52.498;13.480;2023-11-21T18:28:10;14.90;;;11.57;;
14681;SDS011;7429;52.498;13.480;2023-11-21T18:31:14;16.23;;;11.97;;
14681;SDS011;7429;52.498;13.480;2023-11-21T18:34:18;17.63;;;12.10;;
14681;SDS011;7429;52.498;13.480;2023-11-21T18:37:21;19.57;;;13.27;;
14681;SDS011;7429;52.498;13.480;2023-11-21T18:40:25;19.70;;;12.33;;
14681;SDS011;7429;52.498;13.480;2023-11-21T18:43:30;19.07;;;12.27;;
14681;SDS011;7429;52.498;13.480;2023-11-21T18:46:35;17.57;;;11.77;;
14681;SDS011;7429;52.498;13.480;2023-11-21T18:49:39;16.87;;;11.77;;